createdAt,value
2023-01-17T00:01:21.149Z,6.20
2023-01-17T00:04:43.028Z,6.20
2023-01-17T00:07:54.138Z,6.00
2023-01-17T00:10:45.340Z,5.90
2023-01-17T00:13:38.861Z,5.80
2023-01-17T00:16:34.310Z,5.80
2023-01-17T00:19:46.615Z,5.80
2023-01-17T00:22:56.035Z,5.80
2023-01-17T00:26:06.079Z,5.80
2023-01-17T00:28:56.731Z,5.70
2023-01-17T00:31:47.232Z,5.80
2023-01-17T00:34:37.548Z,5.90
2023-01-17T00:37:28.005Z,5.90
2023-01-17T00:40:25.817Z,5.90
2023-01-17T00:43:38.163Z,5.90
2023-01-17T00:46:47.371Z,6.00
2023-01-17T00:49:56.457Z,5.90
2023-01-17T00:53:05.485Z,5.80
2023-01-17T00:56:21.044Z,5.70
2023-01-17T00:59:30.236Z,5.70
2023-01-17T01:02:39.882Z,5.50
2023-01-17T01:05:55.803Z,5.50
2023-01-17T01:09:04.686Z,5.40
2023-01-17T01:12:14.211Z,5.40
2023-01-17T01:15:23.807Z,5.40
2023-01-17T01:18:39.573Z,5.30
2023-01-17T01:21:48.803Z,5.30
2023-01-17T01:25:00.038Z,5.20
2023-01-17T01:28:09.490Z,5.10
2023-01-17T01:34:16.330Z,5.00
2023-01-17T01:37:14.833Z,4.90
2023-01-17T01:53:23.625Z,4.90
2023-01-17T01:56:16.945Z,4.80
2023-01-17T01:59:11.299Z,4.70
2023-01-17T02:02:03.497Z,4.60
2023-01-17T02:04:55.673Z,4.70
2023-01-17T02:07:51.779Z,4.70
2023-01-17T02:10:45.183Z,4.60
2023-01-17T02:13:38.512Z,4.60
2023-01-17T02:16:44.053Z,4.60
2023-01-17T02:23:08.634Z,4.70
2023-01-17T02:26:11.182Z,4.80
2023-01-17T02:29:11.198Z,4.90
2023-01-17T02:32:05.627Z,4.90
2023-01-17T02:37:51.665Z,4.70
2023-01-17T02:40:46.665Z,4.80
2023-01-17T02:43:47.621Z,4.70
2023-01-17T02:46:51.330Z,4.70
2023-01-17T02:49:43.163Z,4.80
2023-01-17T02:52:47.815Z,4.80
2023-01-17T02:58:40.052Z,4.70
2023-01-17T03:01:37.264Z,4.70
2023-01-17T03:04:39.004Z,4.70
2023-01-17T03:07:31.999Z,4.60
2023-01-17T03:10:31.351Z,4.50
2023-01-17T03:13:23.189Z,4.50
2023-01-17T03:16:25.720Z,4.60
2023-01-17T03:19:24.301Z,4.70
2023-01-17T03:22:19.975Z,4.60
2023-01-17T03:25:15.273Z,4.50
2023-01-17T03:28:07.359Z,4.40
2023-01-17T03:30:59.343Z,4.50
2023-01-17T03:33:54.437Z,4.50
2023-01-17T03:36:46.123Z,4.50
2023-01-17T03:39:44.727Z,4.50
2023-01-17T03:42:36.363Z,4.40
2023-01-17T03:45:34.041Z,4.30
2023-01-17T03:48:27.036Z,4.40
2023-01-17T03:51:25.611Z,4.40
2023-01-17T03:54:16.699Z,4.40
2023-01-17T03:57:08.697Z,4.50
2023-01-17T04:00:00.371Z,4.40
2023-01-17T04:02:55.499Z,4.50
2023-01-17T04:05:47.261Z,4.60
2023-01-17T04:08:38.798Z,4.50
2023-01-17T04:11:33.746Z,4.60
2023-01-17T04:14:25.297Z,4.50
2023-01-17T04:17:17.947Z,4.50
2023-01-17T04:20:14.694Z,4.50
2023-01-17T04:23:06.659Z,4.40
2023-01-17T04:25:58.351Z,4.40
2023-01-17T04:28:49.729Z,4.50
2023-01-17T04:31:41.743Z,4.50
2023-01-17T04:34:33.785Z,4.50
2023-01-17T04:37:26.161Z,4.50
2023-01-17T04:40:19.690Z,4.40
2023-01-17T04:43:11.292Z,4.40
2023-01-17T04:46:08.669Z,4.50
2023-01-17T04:49:00.762Z,4.50
2023-01-17T04:51:55.962Z,4.50
2023-01-17T04:57:32.714Z,4.70
2023-01-17T05:00:25.092Z,4.70
2023-01-17T05:03:19.866Z,4.80
2023-01-17T05:06:11.986Z,4.70
2023-01-17T05:09:10.750Z,4.70
2023-01-17T05:12:04.314Z,4.70
2023-01-17T05:14:55.817Z,4.60
2023-01-17T05:17:47.353Z,4.60
2023-01-17T05:20:41.444Z,4.60
2023-01-17T05:23:41.975Z,4.60
2023-01-17T05:26:43.562Z,4.50
2023-01-17T05:29:41.399Z,4.50
2023-01-17T05:32:33.674Z,4.50
2023-01-17T05:38:46.219Z,4.50
2023-01-17T05:41:38.498Z,4.50
2023-01-17T05:44:30.288Z,4.30
2023-01-17T05:47:22.382Z,4.40
2023-01-17T05:50:16.244Z,4.40
2023-01-17T05:53:11.508Z,4.40
2023-01-17T05:56:21.617Z,4.40
2023-01-17T05:59:32.301Z,4.40
2023-01-17T06:02:14.507Z,4.40
2023-01-17T06:05:07.008Z,4.40
2023-01-17T06:07:59.333Z,4.50
2023-01-17T06:10:51.029Z,4.50
2023-01-17T06:13:42.993Z,4.50
2023-01-17T06:16:48.021Z,4.50
2023-01-17T06:19:37.105Z,4.50
2023-01-17T06:22:28.773Z,4.50
2023-01-17T06:25:27.434Z,4.50
2023-01-17T06:31:11.512Z,4.60
2023-01-17T06:34:06.311Z,4.50
2023-01-17T06:37:03.216Z,4.30
2023-01-17T06:39:54.960Z,4.20
2023-01-17T06:42:46.968Z,4.20
2023-01-17T06:45:39.205Z,4.30
2023-01-17T06:48:30.995Z,4.50
2023-01-17T06:51:22.575Z,4.30
2023-01-17T06:54:14.332Z,4.20
2023-01-17T06:57:06.511Z,4.40
2023-01-17T06:59:58.430Z,4.30
2023-01-17T07:02:52.766Z,4.30
2023-01-17T07:05:45.411Z,4.40
2023-01-17T07:08:39.687Z,4.40
2023-01-17T07:11:31.614Z,4.40
2023-01-17T07:14:23.194Z,4.40
2023-01-17T07:17:15.242Z,4.30
2023-01-17T07:20:11.011Z,4.30
2023-01-17T07:23:04.791Z,4.40
2023-01-17T07:25:57.872Z,4.50
2023-01-17T07:28:55.882Z,4.40
2023-01-17T07:31:51.430Z,4.30
2023-01-17T07:34:43.505Z,4.30
2023-01-17T07:37:39.415Z,4.30
2023-01-17T07:40:33.544Z,4.30
2023-01-17T07:43:26.828Z,4.40
2023-01-17T07:46:19.184Z,4.40
2023-01-17T07:49:17.820Z,4.50
2023-01-17T07:52:13.058Z,4.50
2023-01-17T07:55:05.620Z,4.50
2023-01-17T07:58:02.852Z,4.50
2023-01-17T08:00:54.102Z,4.50
2023-01-17T08:03:45.814Z,4.50
2023-01-17T08:06:47.718Z,4.60
2023-01-17T08:09:39.712Z,4.60
2023-01-17T08:12:31.629Z,4.60
2023-01-17T08:15:26.954Z,4.60
2023-01-17T08:18:33.969Z,4.60
2023-01-17T08:21:27.267Z,4.60
2023-01-17T08:24:29.767Z,4.60
2023-01-17T08:27:22.275Z,4.70
2023-01-17T08:30:28.613Z,4.60
2023-01-17T08:33:22.743Z,4.60
2023-01-17T08:36:26.716Z,4.60
2023-01-17T08:42:40.105Z,4.70
2023-01-17T08:45:32.027Z,4.80
2023-01-17T08:48:27.682Z,4.70
2023-01-17T08:51:19.291Z,4.70
2023-01-17T08:54:19.753Z,4.70
2023-01-17T09:00:42.918Z,4.70
2023-01-17T09:00:58.648Z,4.90
2023-01-17T09:04:00.450Z,5.00
2023-01-17T09:06:59.445Z,5.10
2023-01-17T09:09:58.069Z,5.20
2023-01-17T09:12:54.082Z,5.20
2023-01-17T09:15:47.435Z,5.10
2023-01-17T09:18:45.729Z,5.20
2023-01-17T09:21:44.589Z,5.10
2023-01-17T09:24:38.183Z,5.10
2023-01-17T09:27:31.318Z,5.10
2023-01-17T09:30:34.052Z,5.10
2023-01-17T09:33:32.789Z,5.20
2023-01-17T09:36:27.020Z,5.10
2023-01-17T09:39:20.411Z,5.10
2023-01-17T09:42:21.078Z,5.00
2023-01-17T09:45:25.061Z,5.10
2023-01-17T09:48:35.775Z,5.00
2023-01-17T09:51:27.163Z,5.00
2023-01-17T09:54:35.100Z,5.00
2023-01-17T09:57:41.454Z,4.90
2023-01-17T10:01:06.496Z,5.00
2023-01-17T10:04:18.451Z,5.00
2023-01-17T10:07:20.183Z,5.00
2023-01-17T10:10:31.202Z,5.00
2023-01-17T10:16:33.265Z,5.10
2023-01-17T10:22:46.554Z,5.10
2023-01-17T10:25:50.661Z,5.20
2023-01-17T10:28:47.656Z,5.30
2023-01-17T10:31:45.892Z,5.30
2023-01-17T10:34:40.951Z,5.30
2023-01-17T10:40:20.004Z,5.50
2023-01-17T10:43:16.852Z,5.60
2023-01-17T10:46:11.198Z,5.70
2023-01-17T10:49:04.033Z,5.70
2023-01-17T10:52:04.966Z,5.80
2023-01-17T10:55:02.625Z,5.80
2023-01-17T10:57:56.383Z,6.00
2023-01-17T11:00:51.955Z,6.10
2023-01-17T11:03:48.962Z,6.20
2023-01-17T11:06:57.247Z,6.20
2023-01-17T11:09:49.150Z,6.00
2023-01-17T11:12:48.099Z,5.80
2023-01-17T11:15:42.084Z,5.80
2023-01-17T11:18:42.175Z,5.80
2023-01-17T11:21:34.537Z,5.70
2023-01-17T11:24:30.431Z,5.80
2023-01-17T11:27:30.267Z,5.70
2023-01-17T11:30:24.838Z,5.80
2023-01-17T11:33:21.961Z,5.90
2023-01-17T11:36:19.642Z,6.00
2023-01-17T11:39:31.985Z,6.00
2023-01-17T11:42:40.913Z,6.00
2023-01-17T11:45:41.013Z,6.00
2023-01-17T11:48:45.637Z,6.10
2023-01-17T11:51:39.857Z,6.20
2023-01-17T11:54:35.882Z,6.30
2023-01-17T11:57:31.533Z,6.30
2023-01-17T12:00:27.052Z,6.40
2023-01-17T12:03:31.355Z,6.50
2023-01-17T12:06:26.529Z,6.60
2023-01-17T12:09:27.061Z,6.60
2023-01-17T12:12:40.607Z,6.80
2023-01-17T12:18:34.276Z,6.90
2023-01-17T12:21:32.367Z,7.00
2023-01-17T12:24:46.870Z,7.20
2023-01-17T12:27:42.784Z,7.30
2023-01-17T12:30:46.802Z,7.40
2023-01-17T12:33:41.857Z,7.40
2023-01-17T12:36:50.013Z,7.60
2023-01-17T12:39:45.689Z,7.60
2023-01-17T12:42:40.967Z,7.70
2023-01-17T12:45:36.849Z,7.80
2023-01-17T12:48:34.204Z,7.80
2023-01-17T12:51:31.223Z,7.80
2023-01-17T12:54:27.002Z,7.90
2023-01-17T13:00:11.963Z,8.00
2023-01-17T13:03:13.069Z,8.00
2023-01-17T13:06:09.744Z,7.90
2023-01-17T13:09:14.149Z,7.90
2023-01-17T13:12:11.618Z,8.00
2023-01-17T13:15:05.532Z,8.10
2023-01-17T13:18:07.821Z,8.20
2023-01-17T13:21:13.383Z,8.40
2023-01-17T13:24:19.697Z,8.40
2023-01-17T13:27:39.181Z,8.60
2023-01-17T13:34:04.336Z,8.60
2023-01-17T13:37:10.499Z,8.40
2023-01-17T13:40:34.420Z,8.40
2023-01-17T13:43:30.650Z,8.30
2023-01-17T13:46:24.887Z,8.20
2023-01-17T13:50:12.119Z,8.20
2023-01-17T13:54:05.268Z,8.10
2023-01-17T13:57:16.239Z,8.10
2023-01-17T14:04:11.373Z,7.90
2023-01-17T14:07:04.552Z,7.90
2023-01-17T14:09:56.062Z,7.90
2023-01-17T14:12:54.596Z,8.00
2023-01-17T14:15:50.600Z,8.10
2023-01-17T14:18:48.892Z,8.20
2023-01-17T14:21:52.955Z,8.20
2023-01-17T14:25:02.011Z,8.30
2023-01-17T14:27:55.968Z,8.30
2023-01-17T14:30:48.011Z,8.30
2023-01-17T14:33:41.801Z,8.20
2023-01-17T14:36:38.069Z,8.20
2023-01-17T14:39:29.371Z,8.20
2023-01-17T14:42:23.868Z,8.10
2023-01-17T14:45:18.521Z,8.10
2023-01-17T14:48:14.724Z,8.00
2023-01-17T14:51:09.630Z,7.90
2023-01-17T14:54:08.441Z,7.80
2023-01-17T14:57:29.073Z,7.80
2023-01-17T15:00:23.632Z,7.80
2023-01-17T15:03:22.135Z,7.70
2023-01-17T15:06:17.025Z,7.70
2023-01-17T15:09:18.698Z,7.70
2023-01-17T15:12:12.259Z,7.80
2023-01-17T15:15:03.542Z,7.80
2023-01-17T15:18:04.190Z,7.70
2023-01-17T15:21:09.386Z,7.70
2023-01-17T15:24:06.476Z,7.70
2023-01-17T15:26:58.442Z,7.70
2023-01-17T15:29:56.331Z,7.60
2023-01-17T15:32:58.036Z,7.60
2023-01-17T15:35:50.422Z,7.60
2023-01-17T15:38:45.946Z,7.50
2023-01-17T15:41:39.856Z,7.50
2023-01-17T15:44:47.973Z,7.50
2023-01-17T15:47:36.638Z,7.40
2023-01-17T15:50:34.694Z,7.40
2023-01-17T15:53:44.666Z,7.40
2023-01-17T15:56:36.281Z,7.40
2023-01-17T15:59:34.335Z,7.40
2023-01-17T16:02:33.256Z,7.30
2023-01-17T16:05:43.261Z,7.30
2023-01-17T16:08:40.875Z,7.30
2023-01-17T16:11:32.697Z,7.30
2023-01-17T16:14:25.342Z,7.30
2023-01-17T16:17:19.191Z,7.30
2023-01-17T16:20:17.563Z,7.20
2023-01-17T16:23:07.654Z,7.20
2023-01-17T16:28:38.244Z,7.10
2023-01-17T16:31:29.549Z,7.10
2023-01-17T16:34:28.214Z,7.10
2023-01-17T16:37:22.069Z,7.10
2023-01-17T16:40:16.197Z,7.10
2023-01-17T16:43:14.274Z,7.00
2023-01-17T16:46:07.473Z,6.90
2023-01-17T16:49:00.030Z,6.80
2023-01-17T16:51:55.477Z,6.80
2023-01-17T16:54:46.803Z,6.70
2023-01-17T16:57:39.754Z,6.70
2023-01-17T17:00:31.129Z,6.80
2023-01-17T17:03:33.090Z,6.70
2023-01-17T17:06:24.975Z,6.60
2023-01-17T17:09:16.138Z,6.60
2023-01-17T17:12:15.308Z,6.60
2023-01-17T17:15:09.743Z,6.60
2023-01-17T17:18:01.132Z,6.60
2023-01-17T17:20:56.527Z,6.60
2023-01-17T17:23:49.559Z,6.60
2023-01-17T17:26:41.824Z,6.60
2023-01-17T17:29:33.531Z,6.60
2023-01-17T17:32:26.272Z,6.50
2023-01-17T17:35:18.449Z,6.50
2023-01-17T17:38:10.175Z,6.40
2023-01-17T17:41:10.757Z,6.30
2023-01-17T17:44:08.990Z,6.30
2023-01-17T17:47:00.690Z,6.30
2023-01-17T17:49:51.853Z,6.30
2023-01-17T17:52:44.370Z,6.30
2023-01-17T17:55:38.626Z,6.20
2023-01-17T17:58:30.789Z,6.20
2023-01-17T18:01:26.111Z,6.10
2023-01-17T18:04:17.803Z,6.10
2023-01-17T18:09:52.673Z,6.00
2023-01-17T18:12:47.386Z,6.00
2023-01-17T18:15:45.434Z,6.00
2023-01-17T18:18:39.111Z,5.90
2023-01-17T18:21:33.125Z,5.90
2023-01-17T18:24:34.102Z,5.90
2023-01-17T18:27:32.931Z,5.90
2023-01-17T18:30:34.270Z,5.90
2023-01-17T18:33:26.347Z,6.00
2023-01-17T18:36:25.146Z,6.10
2023-01-17T18:39:19.866Z,6.10
2023-01-17T18:42:12.086Z,6.10
2023-01-17T18:45:03.557Z,6.10
2023-01-17T18:47:55.357Z,6.20
2023-01-17T18:50:52.324Z,6.20
2023-01-17T18:53:46.037Z,6.20
2023-01-17T18:56:38.884Z,6.20
2023-01-17T18:59:31.411Z,6.30
2023-01-17T19:02:23.198Z,6.20
2023-01-17T19:05:15.851Z,6.20
2023-01-17T19:08:12.405Z,6.10
2023-01-17T19:11:04.617Z,6.20
2023-01-17T19:14:03.353Z,6.20
2023-01-17T19:16:59.931Z,6.10
2023-01-17T19:19:52.181Z,6.10
2023-01-17T19:22:44.297Z,6.10
2023-01-17T19:25:38.569Z,6.10
2023-01-17T19:47:42.629Z,6.00
2023-01-17T19:50:34.367Z,6.00
2023-01-17T21:17:55.082Z,5.90
2023-01-17T21:20:47.129Z,5.90
2023-01-17T21:51:06.253Z,5.80
2023-01-17T21:53:59.519Z,5.80
2023-01-17T21:57:08.517Z,5.80
2023-01-17T22:00:03.287Z,5.70
2023-01-17T22:02:58.850Z,5.70
2023-01-17T22:37:53.528Z,5.60
2023-01-17T22:40:44.997Z,5.60
2023-01-17T23:00:49.848Z,5.40
2023-01-17T23:03:42.833Z,5.40
2023-01-17T23:06:35.998Z,5.50
2023-01-17T23:09:28.017Z,5.50
2023-01-17T23:12:30.768Z,5.50
2023-01-17T23:15:40.403Z,5.50
2023-01-17T23:18:49.764Z,5.60
2023-01-17T23:21:59.096Z,5.60
2023-01-17T23:24:53.363Z,5.60
2023-01-17T23:28:03.721Z,5.50
2023-01-17T23:30:55.334Z,5.50
2023-01-17T23:33:48.990Z,5.60
2023-01-17T23:36:40.293Z,5.50
2023-01-17T23:39:32.627Z,5.60
2023-01-17T23:42:41.957Z,5.50
2023-01-17T23:45:36.061Z,5.50
2023-01-17T23:48:29.736Z,5.40
2023-01-17T23:51:21.277Z,5.30
2023-01-17T23:54:14.393Z,5.30
2023-01-17T23:57:05.476Z,5.10
2023-01-17T23:59:57.245Z,5.10
